Time;durP1;ratioP1;P1;durP2;ratioP2;P2;SDS_P1;SDS_P2;PMS_P1;PMS_P2;Temp;Humidity;BMP_temperature;BMP_pressure;BME280_temperature;BME280_humidity;BME280_pressure;Samples;Min_cycle;Max_cycle;Signal;HPM_P1;HPM_P2
2022/08/03 00:01:35;;;;;;;15.77;12.00;;;19.40;99.90;;;;;;4976085;28;20209;-82
2022/08/03 00:04:03;;;;;;;13.63;11.47;;;19.30;99.90;;;;;;4959701;28;20292;-82
2022/08/03 00:06:30;;;;;;;13.20;11.40;;;19.30;99.90;;;;;;4976385;28;20205;-83
2022/08/03 00:09:04;;;;;;;17.43;11.93;;;19.30;99.90;;;;;;4977083;28;20201;-82
2022/08/03 00:11:31;;;;;;;18.13;13.10;;;19.30;99.90;;;;;;4976859;28;20205;-82
2022/08/03 00:13:58;;;;;;;19.10;12.43;;;19.20;99.90;;;;;;4977030;28;20263;-82
2022/08/03 00:16:25;;;;;;;18.00;12.30;;;19.20;99.90;;;;;;4977400;28;20218;-82
2022/08/03 00:18:52;;;;;;;16.20;11.97;;;19.20;99.90;;;;;;4991868;28;20213;-83
2022/08/03 00:21:19;;;;;;;16.13;12.47;;;19.20;99.90;;;;;;4992951;28;20294;-82
2022/08/03 00:23:46;;;;;;;18.37;11.97;;;19.10;99.90;;;;;;4977088;28;20197;-82
2022/08/03 00:26:19;;;;;;;16.43;12.10;;;19.10;99.90;;;;;;4975919;28;20232;-82
2022/08/03 00:28:47;;;;;;;15.30;11.97;;;19.00;99.90;;;;;;4976917;28;20197;-82
2022/08/03 00:31:17;;;;;;;16.17;12.23;;;19.00;99.90;;;;;;4975786;28;20655;-82
2022/08/03 00:34:07;;;;;;;21.40;12.80;;;19.00;99.90;;;;;;4991752;28;20201;-81
2022/08/03 00:36:42;;;;;;;15.33;12.43;;;19.00;99.90;;;;;;4975022;28;20276;-81
2022/08/03 00:39:15;;;;;;;17.47;12.70;;;18.90;99.90;;;;;;4975447;28;20644;-81
2022/08/03 00:42:25;;;;;;;15.20;12.60;;;18.80;99.90;;;;;;4992489;28;20201;-82
2022/08/03 00:50:34;;;;;;;15.90;12.43;;;18.80;99.90;;;;;;5031016;23;20319;-81
2022/08/03 00:53:04;;;;;;;15.57;12.27;;;18.80;99.90;;;;;;4997950;28;20649;-82
2022/08/03 00:55:37;;;;;;;15.93;11.57;;;18.70;99.90;;;;;;5012343;28;20191;-82
2022/08/03 00:58:05;;;;;;;14.87;12.60;;;18.60;99.90;;;;;;4961919;28;20207;-81
2022/08/03 01:00:35;;;;;;;13.57;12.00;;;18.70;99.90;;;;;;4978053;28;20303;-80
2022/08/03 01:03:03;;;;;;;16.37;12.67;;;18.70;99.90;;;;;;4979427;28;20251;-80
2022/08/03 01:05:44;;;;;;;14.77;12.07;;;18.60;99.90;;;;;;4978827;28;20212;-83
2022/08/03 01:08:37;;;;;;;16.03;12.03;;;18.60;99.90;;;;;;4978557;28;20235;-82
2022/08/03 01:11:46;;;;;;;14.37;12.40;;;18.60;99.90;;;;;;4966490;23;20256;-82
2022/08/03 01:14:44;;;;;;;14.77;12.07;;;18.60;99.90;;;;;;4978473;28;20538;-81
2022/08/03 01:17:33;;;;;;;15.13;12.33;;;18.50;99.90;;;;;;4978491;28;20266;-82
2022/08/03 01:20:08;;;;;;;15.23;12.13;;;18.40;99.90;;;;;;4974885;28;20686;-81
2022/08/03 01:23:07;;;;;;;19.20;12.43;;;18.40;99.90;;;;;;4975781;28;20207;-81
2022/08/03 01:25:56;;;;;;;15.03;11.83;;;18.40;99.90;;;;;;4961099;28;20200;-81
2022/08/03 01:28:51;;;;;;;18.07;12.57;;;18.40;99.90;;;;;;4977820;28;20205;-83
2022/08/03 01:31:27;;;;;;;15.57;12.60;;;18.30;99.90;;;;;;4978032;28;20235;-81
2022/08/03 01:34:01;;;;;;;17.47;13.60;;;18.30;99.90;;;;;;4977485;28;20299;-81
2022/08/03 01:36:36;;;;;;;16.47;14.00;;;18.30;99.90;;;;;;4977621;28;20215;-80
2022/08/03 01:39:14;;;;;;;24.73;15.00;;;18.20;99.90;;;;;;4977963;28;20683;-79
2022/08/03 01:41:49;;;;;;;19.13;13.90;;;18.20;99.90;;;;;;4977505;28;20295;-80
2022/08/03 01:44:16;;;;;;;19.07;13.23;;;18.20;99.90;;;;;;4977821;28;20199;-80
2022/08/03 01:47:01;;;;;;;16.67;12.93;;;18.20;99.90;;;;;;4993630;28;20223;-81
2022/08/03 01:49:30;;;;;;;16.50;13.57;;;18.20;99.90;;;;;;4977367;28;20299;-82
2022/08/03 01:51:59;;;;;;;20.73;14.40;;;18.20;99.90;;;;;;4976942;28;20208;-81
2022/08/03 01:54:43;;;;;;;18.47;14.97;;;18.20;99.90;;;;;;4977497;28;20200;-82
2022/08/03 01:57:24;;;;;;;17.97;14.67;;;18.20;99.90;;;;;;4995923;28;20681;-83
2022/08/03 01:59:53;;;;;;;16.63;14.30;;;18.20;99.90;;;;;;4978072;28;20288;-81
2022/08/03 02:02:21;;;;;;;18.57;14.73;;;18.10;99.90;;;;;;4977098;28;20209;-81
2022/08/03 02:05:02;;;;;;;17.23;13.80;;;18.10;99.90;;;;;;4977528;28;20280;-82
2022/08/03 02:07:55;;;;;;;18.33;14.43;;;18.10;99.90;;;;;;4977712;28;20189;-81
2022/08/03 02:10:23;;;;;;;18.47;14.20;;;18.10;99.90;;;;;;4976625;28;20316;-82
2022/08/03 02:13:04;;;;;;;21.70;15.43;;;18.10;99.90;;;;;;4993632;28;20685;-83
2022/08/03 02:15:32;;;;;;;23.60;16.73;;;18.00;99.90;;;;;;4978606;28;20325;-83
2022/08/03 02:18:02;;;;;;;25.57;17.57;;;18.00;99.90;;;;;;4980949;28;20300;-82
2022/08/03 02:20:31;;;;;;;22.60;16.97;;;18.10;99.90;;;;;;4977081;28;20197;-83
2022/08/03 02:22:59;;;;;;;21.33;15.80;;;18.00;99.90;;;;;;4977218;28;20203;-83
2022/08/03 02:25:27;;;;;;;18.83;16.23;;;18.00;99.90;;;;;;4994343;28;20231;-83
2022/08/03 02:27:58;;;;;;;20.10;16.63;;;17.90;99.90;;;;;;4976861;28;20220;-82
2022/08/03 02:30:32;;;;;;;20.57;17.20;;;17.90;99.90;;;;;;4976854;28;20201;-82
2022/08/03 02:33:00;;;;;;;27.63;20.30;;;17.90;99.90;;;;;;4976865;28;20201;-82
2022/08/03 02:35:29;;;;;;;22.40;18.53;;;17.90;99.90;;;;;;4976917;28;20201;-84
2022/08/03 02:38:03;;;;;;;22.20;18.17;;;17.90;99.90;;;;;;4976645;28;20231;-82
2022/08/03 02:40:31;;;;;;;22.27;19.07;;;17.90;99.90;;;;;;4977901;28;20243;-83
2022/08/03 02:43:02;;;;;;;24.50;17.70;;;17.80;99.90;;;;;;4977766;28;20232;-82
2022/08/03 02:45:38;;;;;;;21.43;17.90;;;17.80;99.90;;;;;;4993366;28;20201;-81
2022/08/03 02:48:11;;;;;;;22.90;17.97;;;17.80;99.90;;;;;;4994289;28;20279;-82
2022/08/03 02:50:40;;;;;;;21.53;18.30;;;17.80;99.90;;;;;;4994187;28;20187;-83
2022/08/03 02:53:09;;;;;;;24.10;18.10;;;17.80;99.90;;;;;;4998393;23;20229;-82
2022/08/03 02:55:37;;;;;;;23.03;19.33;;;17.80;99.90;;;;;;4993094;28;20189;-81
2022/08/03 02:58:19;;;;;;;22.00;18.23;;;17.70;99.90;;;;;;4992615;28;20315;-80
2022/08/03 03:01:10;;;;;;;24.93;19.90;;;17.70;99.90;;;;;;5007753;23;20223;31
2022/08/03 03:03:40;;;;;;;23.20;19.93;;;17.70;99.90;;;;;;4955514;28;20316;-80
2022/08/03 03:06:12;;;;;;;24.07;20.20;;;17.70;99.90;;;;;;4957173;28;20205;-82
2022/08/03 03:08:41;;;;;;;26.30;18.90;;;17.70;99.90;;;;;;4957515;28;20229;-81
2022/08/03 03:11:09;;;;;;;24.67;19.83;;;17.70;99.90;;;;;;4957481;28;20204;-81
2022/08/03 03:13:37;;;;;;;30.70;19.90;;;17.70;99.90;;;;;;4974662;28;20197;-82
2022/08/03 03:16:06;;;;;;;26.43;20.27;;;17.70;99.90;;;;;;4957361;28;20204;-81
2022/08/03 03:18:35;;;;;;;27.47;19.23;;;17.70;99.90;;;;;;4974235;28;20252;-80
2022/08/03 03:21:03;;;;;;;23.97;19.27;;;17.70;99.90;;;;;;4990711;28;20208;-83
2022/08/03 03:23:32;;;;;;;24.43;20.27;;;17.70;99.90;;;;;;4976974;28;20202;-81
2022/08/03 03:26:01;;;;;;;25.30;19.37;;;17.70;99.90;;;;;;4977044;28;20240;-80
2022/08/03 03:28:30;;;;;;;25.20;19.80;;;17.70;99.90;;;;;;4976939;28;20201;-80
2022/08/03 03:30:58;;;;;;;28.17;19.37;;;17.70;99.90;;;;;;4976736;28;20201;-81
2022/08/03 03:33:25;;;;;;;28.07;19.50;;;17.70;99.90;;;;;;4960886;28;20714;-79
2022/08/03 03:35:54;;;;;;;24.73;19.10;;;17.80;99.90;;;;;;4978191;28;20233;-79
2022/08/03 03:38:23;;;;;;;23.63;19.97;;;17.80;99.90;;;;;;4976506;28;20705;-79
2022/08/03 03:40:57;;;;;;;27.17;19.80;;;17.80;99.90;;;;;;4976713;28;20718;-78
2022/08/03 03:43:24;;;;;;;22.47;18.87;;;17.80;99.90;;;;;;4976320;28;20205;-79
2022/08/03 03:45:52;;;;;;;22.27;18.60;;;17.90;99.90;;;;;;4976704;28;20252;-78
2022/08/03 03:48:19;;;;;;;24.47;18.73;;;17.90;99.90;;;;;;4960399;28;20201;-79
2022/08/03 03:50:48;;;;;;;25.20;18.60;;;17.90;99.90;;;;;;4976905;28;20198;-79
2022/08/03 03:53:15;;;;;;;21.10;18.40;;;18.00;99.90;;;;;;4976221;28;20197;-78
2022/08/03 03:55:42;;;;;;;22.77;18.13;;;18.00;99.90;;;;;;4976280;28;20648;-78
2022/08/03 03:58:29;;;;;;;22.83;17.23;;;18.00;99.90;;;;;;4976237;28;20218;-79
2022/08/03 04:00:56;;;;;;;24.40;18.17;;;18.10;99.90;;;;;;4977026;28;20213;-78
2022/08/03 04:03:23;;;;;;;21.23;17.17;;;18.10;99.90;;;;;;4992316;28;20241;-78
2022/08/03 04:11:46;;;;;;;20.20;17.10;;;18.30;99.90;;;;;;4976733;28;20216;-80
2022/08/03 04:14:13;;;;;;;23.57;17.10;;;18.40;99.90;;;;;;4976330;28;20312;-83
2022/08/03 04:16:50;;;;;;;21.40;17.17;;;18.50;99.90;;;;;;4976231;28;20193;-78
2022/08/03 04:19:31;;;;;;;22.60;17.27;;;18.60;99.90;;;;;;4975350;28;20694;-78
2022/08/03 04:22:01;;;;;;;24.97;17.13;;;18.60;99.90;;;;;;4977474;28;20294;-78
2022/08/03 04:24:41;;;;;;;23.13;17.60;;;18.70;99.90;;;;;;4975865;28;20208;-78
2022/08/03 04:27:11;;;;;;;19.23;16.43;;;18.80;99.90;;;;;;4975957;28;20207;-80
2022/08/03 04:29:44;;;;;;;21.80;16.80;;;18.90;99.90;;;;;;4976968;28;20265;-79
2022/08/03 04:32:19;;;;;;;25.37;18.97;;;19.00;99.90;;;;;;4974841;28;20227;-81
2022/08/03 04:34:46;;;;;;;21.50;17.97;;;19.00;99.90;;;;;;4975734;28;20220;-78
2022/08/03 04:37:57;;;;;;;23.20;18.23;;;19.10;99.90;;;;;;4972586;28;20226;-78
2022/08/03 04:40:31;;;;;;;21.90;17.70;;;19.10;99.90;;;;;;4901392;29;20274;-78
2022/08/03 04:42:59;;;;;;;21.70;17.37;;;19.20;99.90;;;;;;4900772;29;20211;-77
2022/08/03 04:45:28;;;;;;;22.63;17.63;;;19.30;99.90;;;;;;4901338;29;20302;-78
2022/08/03 04:47:56;;;;;;;24.20;18.10;;;19.40;99.90;;;;;;4924117;29;20210;-78
2022/08/03 04:50:23;;;;;;;23.03;17.10;;;19.50;99.90;;;;;;4920410;29;20209;-80
2022/08/03 04:52:50;;;;;;;22.10;18.23;;;19.50;99.90;;;;;;4920309;29;20699;-81
2022/08/03 04:55:30;;;;;;;23.53;18.33;;;19.60;99.90;;;;;;4920603;29;20222;-79
2022/08/03 04:57:58;;;;;;;23.70;18.70;;;19.60;99.90;;;;;;4920445;29;20253;-81
2022/08/03 05:00:26;;;;;;;32.47;19.03;;;19.60;99.90;;;;;;4920900;29;20677;-80
2022/08/03 05:02:53;;;;;;;23.33;18.97;;;19.70;99.90;;;;;;4916120;29;20266;-80
2022/08/03 05:05:20;;;;;;;25.50;18.70;;;19.70;99.90;;;;;;4936155;29;20222;-80
2022/08/03 05:07:49;;;;;;;28.53;19.17;;;19.80;99.90;;;;;;4936049;29;20709;-81
2022/08/03 05:10:16;;;;;;;22.97;18.23;;;19.80;99.90;;;;;;4935466;29;20207;-81
2022/08/03 05:12:44;;;;;;;25.50;17.60;;;19.90;99.90;;;;;;4935466;29;20234;-81
2022/08/03 05:15:12;;;;;;;25.90;17.73;;;19.90;99.90;;;;;;4935581;29;20195;-81
2022/08/03 05:17:40;;;;;;;19.27;16.87;;;20.00;99.90;;;;;;4966424;28;20660;-83
2022/08/03 05:20:08;;;;;;;36.33;17.97;;;20.00;99.90;;;;;;4975182;28;20189;-78
2022/08/03 05:22:35;;;;;;;22.60;16.97;;;20.00;99.90;;;;;;4974628;28;20570;-80
2022/08/03 05:25:03;;;;;;;25.90;17.23;;;20.10;99.90;;;;;;4974370;28;20202;-78
2022/08/03 05:27:30;;;;;;;24.13;17.17;;;20.10;99.90;;;;;;4974716;28;20201;-79
2022/08/03 05:29:57;;;;;;;21.20;16.93;;;20.10;99.90;;;;;;4958909;28;20673;-80
2022/08/03 05:32:44;;;;;;;19.53;16.50;;;20.10;99.90;;;;;;4974642;28;20189;-80
2022/08/03 05:35:11;;;;;;;27.97;18.13;;;20.20;99.90;;;;;;4974493;28;20675;-80
2022/08/03 05:37:58;;;;;;;22.93;16.77;;;20.20;99.90;;;;;;4974672;28;20220;-79
2022/08/03 05:40:25;;;;;;;22.73;17.20;;;20.20;99.90;;;;;;4975618;28;20662;-79
2022/08/03 05:42:52;;;;;;;30.80;17.27;;;20.20;99.90;;;;;;4990357;28;20205;-78
2022/08/03 05:45:19;;;;;;;28.40;19.00;;;20.30;99.90;;;;;;4973568;28;20206;-79
2022/08/03 05:47:52;;;;;;;25.33;20.13;;;20.40;99.90;;;;;;4974346;28;20208;-79
2022/08/03 05:50:20;;;;;;;30.77;21.40;;;20.30;99.90;;;;;;4974493;28;20244;-79
2022/08/03 05:52:47;;;;;;;43.27;22.60;;;20.40;99.90;;;;;;4974328;28;20316;-79
2022/08/03 05:55:15;;;;;;;39.67;21.20;;;20.50;99.90;;;;;;4975491;28;20201;-80
2022/08/03 05:57:44;;;;;;;34.90;21.83;;;20.60;99.90;;;;;;4974407;28;20271;-80
2022/08/03 06:00:12;;;;;;;27.27;20.53;;;20.60;99.90;;;;;;4973648;28;20274;-80
2022/08/03 06:02:41;;;;;;;26.50;21.67;;;20.70;99.90;;;;;;4988199;28;20300;-80
2022/08/03 06:05:09;;;;;;;28.73;21.80;;;20.70;99.90;;;;;;4975321;28;20635;-78
2022/08/03 06:07:36;;;;;;;30.50;21.20;;;20.70;99.90;;;;;;4974742;28;20198;-79
2022/08/03 06:10:04;;;;;;;23.00;20.20;;;20.60;99.90;;;;;;4973581;28;20201;-79
2022/08/03 06:12:51;;;;;;;28.57;21.20;;;20.60;99.90;;;;;;4964319;28;20205;-80
2022/08/03 06:15:25;;;;;;;31.63;21.80;;;20.60;99.90;;;;;;4973632;28;20209;-76
2022/08/03 06:17:52;;;;;;;31.93;21.60;;;20.60;99.90;;;;;;4973503;28;20925;-78
2022/08/03 06:20:20;;;;;;;27.10;21.30;;;20.40;99.90;;;;;;4974850;28;20202;-80
2022/08/03 06:22:53;;;;;;;26.50;21.50;;;20.40;99.90;;;;;;4973781;28;20252;-80
2022/08/03 06:25:27;;;;;;;25.80;21.97;;;20.50;99.90;;;;;;4973912;28;20197;-82
2022/08/03 06:27:54;;;;;;;30.13;22.47;;;20.50;99.90;;;;;;4973593;28;20286;-81
2022/08/03 06:30:21;;;;;;;37.30;22.13;;;20.60;99.90;;;;;;4972799;28;20217;-80
2022/08/03 06:32:48;;;;;;;32.37;22.10;;;20.60;99.90;;;;;;4973657;28;20216;-81
2022/08/03 06:35:21;;;;;;;27.93;22.43;;;20.70;99.90;;;;;;4986945;28;20189;-80
2022/08/03 06:37:50;;;;;;;27.23;22.03;;;20.70;99.90;;;;;;4973669;28;20213;-81
2022/08/03 06:40:30;;;;;;;29.40;21.93;;;20.80;99.90;;;;;;4972503;28;21769;-78
2022/08/03 06:42:58;;;;;;;35.57;22.57;;;20.90;99.90;;;;;;4963222;28;20571;-79
2022/08/03 06:45:25;;;;;;;27.43;21.03;;;21.00;99.90;;;;;;4964883;28;20563;-79
2022/08/03 06:48:00;;;;;;;29.83;21.57;;;21.00;99.90;;;;;;4963417;28;20205;-78
2022/08/03 06:50:28;;;;;;;27.70;21.10;;;21.10;99.90;;;;;;4979235;28;20221;-80
2022/08/03 06:53:03;;;;;;;29.27;21.23;;;21.10;99.90;;;;;;4956309;28;20198;-80
2022/08/03 06:55:36;;;;;;;28.43;20.20;;;21.10;99.90;;;;;;4957249;28;20186;-82
2022/08/03 06:58:08;;;;;;;26.07;20.03;;;21.20;99.90;;;;;;4960849;28;20228;-81
2022/08/03 07:00:35;;;;;;;27.27;20.07;;;21.30;99.90;;;;;;4973676;28;20197;-80
2022/08/03 07:03:02;;;;;;;27.00;19.67;;;21.40;99.90;;;;;;4981177;28;20232;-79
2022/08/03 07:05:32;;;;;;;27.03;21.17;;;21.40;99.90;;;;;;4992606;23;20232;-81
2022/08/03 07:08:00;;;;;;;29.10;20.67;;;21.40;99.90;;;;;;5003098;28;20196;-82
2022/08/03 07:10:28;;;;;;;27.93;19.63;;;21.40;99.90;;;;;;5002388;28;20204;-80
2022/08/03 07:12:54;;;;;;;23.30;19.07;;;21.50;99.90;;;;;;5005662;23;20304;-82
2022/08/03 07:15:25;;;;;;;26.77;19.17;;;21.50;99.90;;;;;;4999321;28;20291;-83
2022/08/03 07:18:15;;;;;;;23.23;19.23;;;21.60;99.90;;;;;;4990346;28;20705;-86
2022/08/03 07:20:57;;;;;;;26.30;21.13;;;21.80;99.90;;;;;;4980433;28;20217;-81
2022/08/03 07:23:40;;;;;;;29.20;20.93;;;22.00;99.90;;;;;;5000207;23;20231;-84
2022/08/03 07:26:07;;;;;;;24.90;20.27;;;22.20;99.90;;;;;;4998772;28;20219;-85
2022/08/03 07:28:43;;;;;;;24.47;19.93;;;22.40;99.90;;;;;;4992591;28;20200;-82
2022/08/03 07:31:10;;;;;;;25.27;19.20;;;22.50;99.90;;;;;;4983502;28;20272;-77
2022/08/03 07:33:46;;;;;;;26.40;18.60;;;22.70;99.90;;;;;;4998020;28;20275;-84
2022/08/03 07:36:13;;;;;;;26.30;19.33;;;23.00;99.90;;;;;;4999438;23;20214;-83
2022/08/03 07:42:46;;;;;;;32.03;19.27;;;23.50;99.90;;;;;;5324361;23;20320;-81
2022/08/03 07:49:03;;;;;;;24.63;17.25;;;23.90;99.90;;;;;;4965941;23;20235;-77
2022/08/03 07:51:30;;;;;;;25.23;17.37;;;24.00;99.90;;;;;;4982954;28;20207;-76
2022/08/03 07:54:00;;;;;;;22.75;17.15;;;24.20;99.90;;;;;;4983362;28;20733;-82
2022/08/03 07:56:27;;;;;;;24.67;16.60;;;24.40;99.90;;;;;;4999788;28;20200;-78
2022/08/03 07:58:55;;;;;;;25.98;16.00;;;24.40;99.90;;;;;;5001415;28;20712;-77
2022/08/03 08:01:25;;;;;;;18.80;15.43;;;24.50;99.90;;;;;;4985749;28;20258;-78
2022/08/03 08:03:55;;;;;;;24.58;15.77;;;24.70;99.90;;;;;;5001226;28;20204;-77
2022/08/03 08:06:24;;;;;;;26.80;15.20;;;24.90;99.90;;;;;;4999927;28;20200;-76
2022/08/03 08:09:00;;;;;;;30.90;15.60;;;25.20;99.90;;;;;;4996682;28;20196;-77
2022/08/03 08:11:30;;;;;;;33.47;15.63;;;25.40;99.90;;;;;;4982480;28;20199;-79
2022/08/03 08:14:15;;;;;;;24.27;14.45;;;25.60;99.90;;;;;;5015681;28;20220;-80
2022/08/03 08:16:48;;;;;;;20.58;13.50;;;25.80;99.90;;;;;;4996425;28;20223;-76
2022/08/03 08:19:15;;;;;;;22.05;13.68;;;26.00;99.90;;;;;;4997810;28;20269;-76
2022/08/03 08:21:44;;;;;;;19.42;14.18;;;26.50;99.90;;;;;;4998510;28;20192;-76
2022/08/03 08:24:42;;;;;;;18.17;11.88;;;27.50;99.90;;;;;;4984471;28;20188;-84
2022/08/03 08:27:12;;;;;;;17.23;11.80;;;28.30;99.90;;;;;;4996213;28;20613;-77
2022/08/03 08:29:41;;;;;;;15.32;10.18;;;29.20;99.90;;;;;;4996527;28;20231;-75
2022/08/03 08:32:18;;;;;;;15.27;10.80;;;30.00;99.90;;;;;;4995524;28;20199;-78
2022/08/03 08:34:45;;;;;;;14.45;9.98;;;30.90;99.90;;;;;;5013075;28;20200;-75
2022/08/03 08:37:12;;;;;;;15.80;9.80;;;31.20;99.90;;;;;;4997908;28;20240;-77
2022/08/03 08:39:40;;;;;;;12.27;9.75;;;31.20;99.90;;;;;;4998182;28;20685;-80
2022/08/03 08:42:08;;;;;;;9.13;7.63;;;31.30;99.90;;;;;;4980999;28;20287;-78
2022/08/03 08:44:35;;;;;;;10.45;8.77;;;31.40;99.90;;;;;;5015412;28;20207;-81
2022/08/03 08:47:03;;;;;;;9.30;7.20;;;30.70;99.90;;;;;;5014568;28;20600;-78
2022/08/03 08:49:42;;;;;;;9.70;6.05;;;29.60;99.90;;;;;;4997832;28;20232;-83
2022/08/03 08:52:38;;;;;;;14.88;7.00;;;29.60;99.90;;;;;;4998672;28;20561;-81
2022/08/03 08:55:20;;;;;;;10.50;7.68;;;29.90;99.90;;;;;;4995083;28;20227;-81
2022/08/03 08:58:03;;;;;;;14.13;7.45;;;30.00;99.90;;;;;;4995350;28;20284;-81
2022/08/03 09:00:31;;;;;;;14.43;7.38;;;30.00;99.90;;;;;;4996061;28;20654;-78
2022/08/03 09:03:18;;;;;;;9.30;6.03;;;30.20;99.90;;;;;;4994423;28;20199;-82
2022/08/03 09:05:55;;;;;;;7.13;6.43;;;30.50;99.90;;;;;;5014940;28;20192;-79
2022/08/03 09:09:19;;;;;;;6.72;5.43;;;31.10;99.90;;;;;;4999412;23;20598;-84
2022/08/03 09:15:44;;;;;;;8.00;6.03;;;32.20;99.90;;;;;;5200333;23;20236;-85
2022/08/03 09:21:30;;;;;;;9.70;6.03;;;32.40;99.30;;;;;;5019656;23;20246;-86
2022/08/03 09:25:18;;;;;;;7.30;6.18;;;32.50;99.00;;;;;;4990541;28;20605;-80
2022/08/03 09:28:22;;;;;;;7.50;5.68;;;32.30;98.90;;;;;;4991673;28;20215;-78
2022/08/03 09:38:26;;;;;;;8.30;5.60;;;30.90;95.80;;;;;;5266984;23;20790;-87
2022/08/03 09:45:25;;;;;;;7.38;5.85;;;29.60;98.30;;;;;;5123050;23;20207;-82
2022/08/03 09:51:35;;;;;;;8.40;5.95;;;30.40;97.50;;;;;;5291176;23;20725;-80
2022/08/03 09:58:07;;;;;;;7.82;5.50;;;31.20;97.20;;;;;;5015330;23;20596;-85
2022/08/03 10:01:08;;;;;;;9.05;5.55;;;31.90;93.90;;;;;;4966157;23;20324;-84
2022/08/03 10:04:02;;;;;;;5.88;4.93;;;31.60;93.10;;;;;;4947115;28;20202;-79
2022/08/03 10:06:31;;;;;;;5.65;4.75;;;31.90;93.80;;;;;;4948449;28;20202;-80
2022/08/03 10:09:13;;;;;;;6.57;5.35;;;32.40;91.60;;;;;;4947387;28;20198;-75
2022/08/03 10:11:41;;;;;;;12.25;5.00;;;32.10;92.00;;;;;;4912326;28;20718;-78
2022/08/03 10:14:10;;;;;;;6.53;5.32;;;32.30;92.50;;;;;;4947243;28;20209;-77
2022/08/03 10:16:38;;;;;;;6.03;5.53;;;32.70;91.80;;;;;;4936693;29;20195;-77
2022/08/03 10:19:07;;;;;;;6.15;4.97;;;33.00;91.30;;;;;;4952066;29;20257;-76
2022/08/03 10:22:02;;;;;;;6.65;4.80;;;33.40;90.00;;;;;;4934024;29;20198;-76
2022/08/03 10:24:32;;;;;;;8.20;4.65;;;33.60;88.70;;;;;;4936967;29;20281;-74
2022/08/03 10:27:06;;;;;;;10.80;5.43;;;33.60;87.10;;;;;;4937149;29;20213;-74
2022/08/03 10:29:37;;;;;;;5.47;4.95;;;33.70;88.10;;;;;;4937081;28;20230;-75
2022/08/03 10:32:17;;;;;;;5.38;4.80;;;33.80;88.10;;;;;;4934129;29;20712;-81
2022/08/03 10:34:53;;;;;;;9.10;4.70;;;34.10;84.20;;;;;;4923532;29;20202;-82
2022/08/03 10:37:58;;;;;;;6.25;5.05;;;34.40;83.90;;;;;;4940471;29;20197;-82
2022/08/03 10:40:41;;;;;;;6.80;5.15;;;34.70;82.00;;;;;;4954848;29;20229;-81
2022/08/03 10:43:35;;;;;;;8.95;5.85;;;35.10;83.90;;;;;;4937415;29;20234;-83
2022/08/03 10:46:09;;;;;;;7.95;5.60;;;35.30;83.70;;;;;;4959384;23;20324;-81
2022/08/03 10:48:37;;;;;;;11.18;5.68;;;35.50;81.70;;;;;;4974774;28;20313;-84
2022/08/03 10:51:34;;;;;;;13.05;5.63;;;35.40;80.80;;;;;;4955827;28;20201;-83
2022/08/03 11:00:24;;;;;;;6.38;4.60;;;36.10;78.30;;;;;;4992348;23;20241;-76
2022/08/03 11:03:07;;;;;;;10.30;5.38;;;35.70;73.30;;;;;;4948060;28;20194;-79
2022/08/03 11:08:35;;;;;;;9.40;4.80;;;35.60;75.30;;;;;;4930402;29;20233;-81
2022/08/03 11:11:17;;;;;;;4.72;4.32;;;35.60;72.60;;;;;;4922260;29;20795;-81
2022/08/03 11:14:06;;;;;;;8.35;4.85;;;35.70;71.20;;;;;;4925775;29;20195;-80
2022/08/03 11:17:20;;;;;;;8.00;4.60;;;35.70;69.90;;;;;;4940345;29;20270;-83
2022/08/03 11:20:20;;;;;;;8.20;6.82;;;35.80;72.20;;;;;;4910260;29;20325;-83
2022/08/03 11:22:50;;;;;;;5.97;4.82;;;35.20;72.10;;;;;;4918055;29;20298;-78
2022/08/03 11:25:17;;;;;;;7.55;5.03;;;34.50;72.60;;;;;;4917220;29;20195;-81
2022/08/03 11:28:47;;;;;;;8.63;5.40;;;34.30;72.80;;;;;;4917679;29;20195;-84
2022/08/03 11:31:42;;;;;;;5.68;4.88;;;33.70;74.00;;;;;;4914071;29;20194;-81
2022/08/03 11:38:09;;;;;;;13.85;5.47;;;33.00;78.40;;;;;;4857382;29;20208;-82
2022/08/03 11:40:52;;;;;;;8.20;5.32;;;33.10;81.80;;;;;;4843997;29;20206;-81
2022/08/03 11:46:20;;;;;;;6.32;5.60;;;33.70;75.90;;;;;;553956;23;20512;-84
2022/08/03 11:54:33;;;;;;;9.52;5.93;;;33.30;77.20;;;;;;4785051;29;20252;-82
2022/08/03 11:57:00;;;;;;;7.32;6.60;;;32.60;77.90;;;;;;4854877;29;20200;-81
2022/08/03 11:59:32;;;;;;;9.45;6.60;;;32.30;80.00;;;;;;4855721;29;20256;-79
2022/08/03 12:02:17;;;;;;;7.95;6.68;;;31.90;81.10;;;;;;4908482;23;20243;-82
2022/08/03 12:05:07;;;;;;;10.27;6.85;;;31.70;83.40;;;;;;4933704;23;20329;-79
2022/08/03 12:07:45;;;;;;;6.97;6.05;;;32.10;84.10;;;;;;4910865;29;20626;-79
2022/08/03 12:10:30;;;;;;;11.02;6.32;;;32.80;83.30;;;;;;4911965;29;20192;-80
2022/08/03 12:12:59;;;;;;;8.35;6.10;;;33.60;81.60;;;;;;4928258;29;20716;-81
2022/08/03 12:22:30;;;;;;;10.48;6.60;;;35.50;74.60;;;;;;4930381;29;20645;-84
2022/08/03 12:24:58;;;;;;;6.88;6.00;;;35.50;73.60;;;;;;4906322;29;20206;-80
2022/08/03 12:27:28;;;;;;;10.88;6.50;;;36.10;74.00;;;;;;4907055;29;20199;-77
2022/08/03 12:30:13;;;;;;;10.25;6.20;;;35.90;70.60;;;;;;4905633;29;20214;-81
2022/08/03 12:32:58;;;;;;;8.48;5.85;;;35.50;70.90;;;;;;4927470;29;20619;-85
2022/08/03 12:36:12;;;;;;;7.32;6.20;;;35.60;72.90;;;;;;4889488;29;20260;-83
2022/08/03 12:38:54;;;;;;;10.25;6.13;;;35.80;70.50;;;;;;4901569;29;20644;-78
2022/08/03 12:41:31;;;;;;;11.68;6.13;;;36.20;69.60;;;;;;4910897;29;20250;-86
2022/08/03 12:44:13;;;;;;;7.45;6.00;;;36.10;69.20;;;;;;4926343;29;20254;-80
2022/08/03 12:46:40;;;;;;;15.48;6.93;;;36.10;68.20;;;;;;4904743;29;20262;-77
2022/08/03 12:49:16;;;;;;;7.80;6.10;;;35.80;67.10;;;;;;4909629;29;20720;-78
2022/08/03 12:51:59;;;;;;;6.93;6.05;;;34.90;71.10;;;;;;4924277;29;20198;-79
2022/08/03 12:54:57;;;;;;;10.57;6.15;;;35.50;72.60;;;;;;4881272;29;20572;-80
2022/08/03 13:04:37;;;;;;;8.05;5.63;;;35.00;69.70;;;;;;5124136;23;20222;-79
2022/08/03 13:14:01;;;;;;;10.75;6.10;;;32.80;73.30;;;;;;4923617;23;20234;-83
2022/08/03 13:16:31;;;;;;;14.05;6.75;;;33.10;73.90;;;;;;4919870;29;20271;-79
2022/08/03 13:21:32;;;;;;;7.93;5.65;;;34.10;71.20;;;;;;4947155;29;20226;-80
2022/08/03 13:29:52;;;;;;;9.68;6.45;;;34.60;67.20;;;;;;4962079;23;20802;-80
2022/08/03 13:36:19;;;;;;;7.93;6.20;;;34.70;71.90;;;;;;4962028;28;20200;-81
2022/08/03 13:39:01;;;;;;;8.95;6.13;;;34.90;71.80;;;;;;4943525;28;20256;-82
2022/08/03 13:41:31;;;;;;;6.90;6.20;;;35.40;69.20;;;;;;5078714;23;20376;-81
2022/08/03 13:44:21;;;;;;;8.23;5.90;;;36.20;66.50;;;;;;4923987;29;20207;-75
2022/08/03 13:51:16;;;;;;;7.68;5.95;;;37.10;64.40;;;;;;5212629;23;20248;-84
2022/08/03 14:01:17;;;;;;;6.50;5.90;;;38.00;61.00;;;;;;5116747;23;20714;-80
2022/08/03 14:07:09;;;;;;;5.90;5.38;;;37.10;61.40;;;;;;4951546;23;20252;-81
2022/08/03 14:09:35;;;;;;;12.82;6.00;;;37.10;60.00;;;;;;4968134;23;20596;-78
2022/08/03 14:15:08;;;;;;;6.43;5.57;;;37.30;61.80;;;;;;5001372;23;20242;-77
2022/08/03 14:17:49;;;;;;;9.90;5.43;;;37.50;59.00;;;;;;4931910;29;20256;-76
2022/08/03 14:20:16;;;;;;;6.38;5.40;;;37.40;58.70;;;;;;4951627;29;20704;-81
2022/08/03 14:23:28;;;;;;;12.00;6.45;;;37.80;59.30;;;;;;4946675;29;20709;-79
2022/08/03 14:26:26;;;;;;;7.05;5.20;;;37.70;58.30;;;;;;4946998;29;20237;-78
2022/08/03 14:28:56;;;;;;;9.55;5.53;;;37.80;58.50;;;;;;5248714;23;20326;-84
2022/08/03 14:37:04;;;;;;;6.07;5.40;;;38.30;57.50;;;;;;5410398;23;20252;-76
2022/08/03 14:39:31;;;;;;;7.25;5.57;;;38.20;57.60;;;;;;4950129;28;20213;-79
2022/08/03 14:42:19;;;;;;;6.97;5.30;;;38.00;57.50;;;;;;4966756;28;20190;-75
2022/08/03 14:50:51;;;;;;;6.22;5.63;;;36.70;58.70;;;;;;4916210;29;20544;-79
2022/08/03 14:53:51;;;;;;;6.10;5.50;;;37.20;58.80;;;;;;4932608;29;20231;-82
2022/08/03 14:56:24;;;;;;;6.18;5.55;;;37.00;57.20;;;;;;4916189;29;20286;-85
2022/08/03 14:59:18;;;;;;;6.10;5.50;;;36.90;57.40;;;;;;4934308;29;20222;-81
2022/08/03 15:01:45;;;;;;;8.82;5.68;;;36.80;57.50;;;;;;4944579;23;20567;-81
2022/08/03 15:04:31;;;;;;;10.30;5.65;;;36.30;58.30;;;;;;4917485;29;20207;-81
2022/08/03 15:07:11;;;;;;;6.85;5.30;;;36.20;57.70;;;;;;4922684;29;20195;-83
2022/08/03 15:09:41;;;;;;;6.28;5.50;;;35.70;59.00;;;;;;4943246;29;20190;-85
2022/08/03 15:12:33;;;;;;;9.35;5.65;;;36.10;59.10;;;;;;4927122;29;20290;-83
2022/08/03 15:15:58;;;;;;;5.60;5.00;;;36.40;57.80;;;;;;4859752;29;20568;-84
2022/08/03 15:18:50;;;;;;;6.97;5.50;;;37.10;56.60;;;;;;4863816;29;20229;-81
2022/08/03 15:21:17;;;;;;;5.90;5.30;;;36.60;57.20;;;;;;4927943;29;20215;-77
2022/08/03 15:24:07;;;;;;;10.77;5.53;;;37.00;56.70;;;;;;4910982;29;20190;-80
2022/08/03 15:26:34;;;;;;;6.03;5.30;;;37.10;56.70;;;;;;4911064;29;20203;-79